createdAt,value
2019-05-11T00:01:14.720Z,10.45
2019-05-11T00:03:40.815Z,10.49
2019-05-11T00:06:06.743Z,10.43
2019-05-11T00:08:32.785Z,10.41
2019-05-11T00:10:58.925Z,10.39
2019-05-11T00:13:25.033Z,10.38
2019-05-11T00:15:51.041Z,10.38
2019-05-11T00:18:17.061Z,10.37
2019-05-11T00:20:43.103Z,10.41
2019-05-11T00:23:09.111Z,10.43
2019-05-11T00:25:35.143Z,10.43
2019-05-11T00:28:01.179Z,10.43
2019-05-11T00:30:27.296Z,10.45
2019-05-11T00:32:53.207Z,10.46
2019-05-11T00:35:19.218Z,10.47
2019-05-11T00:37:45.196Z,10.45
2019-05-11T00:40:14.769Z,10.36
2019-05-11T00:42:39.528Z,10.24
2019-05-11T00:45:05.879Z,10.19
2019-05-11T00:47:32.284Z,10.16
2019-05-11T00:49:58.382Z,10.16
2019-05-11T00:52:24.420Z,10.13
2019-05-11T00:54:50.320Z,10.07
2019-05-11T00:57:16.433Z,10.07
2019-05-11T00:59:42.336Z,10.09
2019-05-11T01:02:08.277Z,10.11
2019-05-11T01:04:34.277Z,10.11
2019-05-11T01:07:00.296Z,10.14
2019-05-11T01:09:26.295Z,10.12
2019-05-11T01:11:52.326Z,10.08
2019-05-11T01:14:18.438Z,10.06
2019-05-11T01:16:44.544Z,10.00
2019-05-11T01:19:10.671Z,10.02
2019-05-11T01:21:36.671Z,10.01
2019-05-11T01:24:02.799Z,10.01
2019-05-11T01:26:28.905Z,10.00
2019-05-11T01:28:54.915Z,9.98
2019-05-11T01:31:20.938Z,9.97
2019-05-11T01:33:47.047Z,9.97
2019-05-11T01:36:13.054Z,10.02
2019-05-11T01:38:39.161Z,10.04
2019-05-11T01:41:05.269Z,10.03
2019-05-11T01:43:31.279Z,10.04
2019-05-11T01:45:57.373Z,10.02
2019-05-11T01:48:23.545Z,9.98
2019-05-11T01:50:49.530Z,9.94
2019-05-11T01:53:15.466Z,9.98
2019-05-11T01:55:41.466Z,10.00
2019-05-11T01:58:07.482Z,10.01
2019-05-11T02:00:33.617Z,10.03
2019-05-11T02:02:59.750Z,10.07
2019-05-11T02:05:27.755Z,10.11
2019-05-11T02:07:53.985Z,10.14
2019-05-11T02:10:19.987Z,10.16
2019-05-11T02:12:46.104Z,10.17
2019-05-11T02:15:12.207Z,10.20
2019-05-11T02:17:38.215Z,10.22
2019-05-11T02:20:04.626Z,10.20
2019-05-11T02:22:30.736Z,10.23
2019-05-11T02:24:56.649Z,10.23
2019-05-11T02:27:22.696Z,10.22
2019-05-11T02:29:48.637Z,10.14
2019-05-11T02:32:14.534Z,10.09
2019-05-11T02:34:40.472Z,10.08
2019-05-11T02:37:06.505Z,10.09
2019-05-11T02:39:32.503Z,10.10
2019-05-11T02:41:58.804Z,10.10
2019-05-11T02:44:24.848Z,10.09
2019-05-11T02:46:50.969Z,10.08
2019-05-11T02:49:17.009Z,10.08
2019-05-11T02:51:43.538Z,10.07
2019-05-11T02:54:10.257Z,10.01
2019-05-11T02:56:36.155Z,10.03
2019-05-11T02:59:02.454Z,10.02
2019-05-11T03:01:28.359Z,10.01
2019-05-11T03:03:54.370Z,10.00
2019-05-11T03:06:20.411Z,9.95
2019-05-11T03:08:46.414Z,9.93
2019-05-11T03:11:12.412Z,9.93
2019-05-11T03:13:38.413Z,9.93
2019-05-11T03:16:04.523Z,9.90
2019-05-11T03:18:30.552Z,9.82
2019-05-11T03:20:56.662Z,9.79
2019-05-11T03:23:22.698Z,9.78
2019-05-11T03:25:48.702Z,9.77
2019-05-11T03:28:14.698Z,9.73
2019-05-11T03:30:40.968Z,9.71
2019-05-11T03:33:07.110Z,9.66
2019-05-11T03:35:33.213Z,9.64
2019-05-11T03:37:59.218Z,9.58
2019-05-11T03:40:25.329Z,9.56
2019-05-11T03:42:51.341Z,9.56
2019-05-11T03:45:17.448Z,9.58
2019-05-11T03:47:43.469Z,9.52
2019-05-11T03:50:09.697Z,9.48
2019-05-11T03:52:35.626Z,9.53
2019-05-11T03:55:01.757Z,9.54
2019-05-11T03:57:27.909Z,9.58
2019-05-11T03:59:53.821Z,9.64
2019-05-11T04:02:19.826Z,9.66
2019-05-11T04:04:45.827Z,9.71
2019-05-11T04:07:11.765Z,9.76
2019-05-11T04:09:37.893Z,9.83
2019-05-11T04:12:04.020Z,9.87
2019-05-11T04:14:30.052Z,9.92
2019-05-11T04:16:56.055Z,9.93
2019-05-11T04:19:22.008Z,9.98
2019-05-11T04:21:48.096Z,10.02
2019-05-11T04:24:14.122Z,10.05
2019-05-11T04:26:40.226Z,10.07
2019-05-11T04:29:06.225Z,10.13
2019-05-11T04:31:32.235Z,10.16
2019-05-11T04:33:58.351Z,10.20
2019-05-11T04:36:24.448Z,10.28
2019-05-11T04:38:50.448Z,10.26
2019-05-11T04:41:16.474Z,10.27
2019-05-11T04:43:42.375Z,10.32
2019-05-11T04:46:08.402Z,10.41
2019-05-11T04:48:34.411Z,10.44
2019-05-11T04:51:00.324Z,10.48
2019-05-11T04:53:26.731Z,10.55
2019-05-11T04:55:52.864Z,10.58
2019-05-11T04:58:18.905Z,10.63
2019-05-11T05:00:44.895Z,10.69
2019-05-11T05:03:11.027Z,10.74
2019-05-11T05:05:37.033Z,10.79
2019-05-11T05:08:09.602Z,10.80
2019-05-11T05:10:31.045Z,10.80
2019-05-11T05:13:09.724Z,10.88
2019-05-11T05:15:24.853Z,10.96
2019-05-11T05:17:50.959Z,11.01
2019-05-11T05:20:17.060Z,11.07
2019-05-11T05:22:43.309Z,11.12
2019-05-11T05:25:09.424Z,11.22
2019-05-11T05:27:35.411Z,11.33
2019-05-11T05:30:02.064Z,11.54
2019-05-11T05:32:28.156Z,11.77
2019-05-11T05:34:54.155Z,11.93
2019-05-11T05:37:20.060Z,11.99
2019-05-11T05:39:45.971Z,12.02
2019-05-11T05:42:12.313Z,12.10
2019-05-11T05:44:38.312Z,12.26
2019-05-11T05:47:04.213Z,12.40
2019-05-11T05:49:30.216Z,12.61
2019-05-11T05:51:58.344Z,12.74
2019-05-11T05:54:24.230Z,12.85
2019-05-11T05:56:51.112Z,12.94
2019-05-11T05:59:17.230Z,12.99
2019-05-11T06:01:43.316Z,13.03
2019-05-11T06:04:09.447Z,13.15
2019-05-11T06:06:35.464Z,13.26
2019-05-11T06:09:01.595Z,13.50
2019-05-11T06:11:27.623Z,13.66
2019-05-11T06:13:53.520Z,13.88
2019-05-11T06:16:19.450Z,14.11
2019-05-11T06:18:45.488Z,14.31
2019-05-11T06:21:11.378Z,14.52
2019-05-11T06:23:37.409Z,14.77
2019-05-11T06:26:03.529Z,14.96
2019-05-11T06:28:29.658Z,15.19
2019-05-11T06:30:55.558Z,15.44
2019-05-11T06:33:21.573Z,15.57
2019-05-11T06:35:47.520Z,15.67
2019-05-11T06:38:13.455Z,15.71
2019-05-11T06:40:39.574Z,15.81
2019-05-11T06:43:05.676Z,15.87
2019-05-11T06:45:31.781Z,15.94
2019-05-11T06:47:57.822Z,16.00
2019-05-11T06:50:23.729Z,15.69
2019-05-11T06:52:49.742Z,15.70
2019-05-11T06:55:15.872Z,15.73
2019-05-11T06:57:41.882Z,15.77
2019-05-11T07:00:08.651Z,15.49
2019-05-11T07:02:34.536Z,15.25
2019-05-11T07:05:00.554Z,15.15
2019-05-11T07:07:26.452Z,15.16
2019-05-11T07:09:52.396Z,15.14
2019-05-11T07:12:18.463Z,15.16
2019-05-11T07:14:44.726Z,15.15
2019-05-11T07:17:10.827Z,15.16
2019-05-11T07:19:36.932Z,15.11
2019-05-11T07:22:03.034Z,15.12
2019-05-11T07:24:29.137Z,15.21
2019-05-11T07:26:55.252Z,15.30
2019-05-11T07:29:21.161Z,15.36
2019-05-11T07:31:47.161Z,15.39
2019-05-11T07:34:13.066Z,15.44
2019-05-11T07:36:39.211Z,15.63
2019-05-11T07:39:05.517Z,16.01
2019-05-11T07:41:31.452Z,16.35
2019-05-11T07:43:58.960Z,16.56
2019-05-11T07:46:25.271Z,16.87
2019-05-11T07:48:51.170Z,17.13
2019-05-11T07:51:18.268Z,17.34
2019-05-11T07:53:44.499Z,17.55
2019-05-11T07:56:10.594Z,17.80
2019-05-11T07:58:38.760Z,18.07
2019-05-11T08:01:04.630Z,18.19
2019-05-11T08:03:30.737Z,18.33
2019-05-11T08:05:58.257Z,18.43
2019-05-11T08:08:25.213Z,18.29
2019-05-11T08:10:51.429Z,17.91
2019-05-11T08:13:17.876Z,17.65
2019-05-11T08:15:44.087Z,17.51
2019-05-11T08:18:10.121Z,17.42
2019-05-11T08:20:38.461Z,17.63
2019-05-11T08:23:04.375Z,18.02
2019-05-11T08:25:30.886Z,18.40
2019-05-11T08:27:58.870Z,18.79
2019-05-11T08:30:25.162Z,19.07
2019-05-11T08:32:51.283Z,19.26
2019-05-11T08:35:17.962Z,19.42
2019-05-11T08:37:44.121Z,19.67
2019-05-11T08:40:10.830Z,19.90
2019-05-11T08:42:37.832Z,20.06
2019-05-11T08:45:16.148Z,20.12
2019-05-11T08:47:32.528Z,19.75
2019-05-11T08:49:59.054Z,19.75
2019-05-11T08:52:25.133Z,19.50
2019-05-11T08:54:51.181Z,19.36
2019-05-11T08:57:17.981Z,19.25
2019-05-11T08:59:44.322Z,19.17
2019-05-11T09:02:10.365Z,19.14
2019-05-11T09:04:39.425Z,19.06
2019-05-11T09:07:04.414Z,18.92
2019-05-11T09:09:30.523Z,18.71
2019-05-11T09:11:58.914Z,18.50
2019-05-11T09:14:24.561Z,18.30
2019-05-11T09:16:50.583Z,18.16
2019-05-11T09:19:17.779Z,18.01
2019-05-11T09:21:44.129Z,17.86
2019-05-11T09:24:10.137Z,17.77
2019-05-11T09:26:38.646Z,17.73
2019-05-11T09:29:04.150Z,17.70
2019-05-11T09:31:30.263Z,17.71
2019-05-11T09:33:58.363Z,17.68
2019-05-11T09:36:24.320Z,17.57
2019-05-11T09:38:50.482Z,17.60
2019-05-11T09:41:18.013Z,17.60
2019-05-11T09:43:44.401Z,17.63
2019-05-11T09:46:10.507Z,17.56
2019-05-11T09:48:37.805Z,17.53
2019-05-11T09:51:04.225Z,17.50
2019-05-11T09:53:30.137Z,17.47
2019-05-11T09:55:58.526Z,17.39
2019-05-11T09:58:24.295Z,17.30
2019-05-11T10:00:50.232Z,17.15
2019-05-11T10:03:18.149Z,17.02
2019-05-11T10:05:44.184Z,16.93
2019-05-11T10:08:10.227Z,16.86
2019-05-11T10:10:38.313Z,16.80
2019-05-11T10:13:04.343Z,16.74
2019-05-11T10:15:30.452Z,16.65
2019-05-11T10:17:58.227Z,16.48
2019-05-11T10:20:24.379Z,16.42
2019-05-11T10:22:50.409Z,16.41
2019-05-11T10:25:18.173Z,16.44
2019-05-11T10:27:44.643Z,16.50
2019-05-11T10:30:10.951Z,16.46
2019-05-11T10:32:38.022Z,16.56
2019-05-11T10:35:04.771Z,16.65
2019-05-11T10:37:30.813Z,16.78
2019-05-11T10:39:57.800Z,16.89
2019-05-11T10:42:24.054Z,17.05
2019-05-11T10:44:49.952Z,17.17
2019-05-11T10:47:18.288Z,17.29
2019-05-11T10:49:44.025Z,17.47
2019-05-11T10:52:10.017Z,17.76
2019-05-11T10:54:39.198Z,18.08
2019-05-11T10:57:04.051Z,18.43
2019-05-11T10:59:30.090Z,18.77
2019-05-11T11:01:55.987Z,19.14
2019-05-11T11:04:22.099Z,19.48
2019-05-11T11:06:48.505Z,19.80
2019-05-11T11:09:14.917Z,20.16
2019-05-11T11:11:41.036Z,20.48
2019-05-11T11:14:08.706Z,20.72
2019-05-11T11:16:39.260Z,20.94
2019-05-11T11:19:02.864Z,21.19
2019-05-11T11:21:28.975Z,21.47
2019-05-11T11:23:54.869Z,21.63
2019-05-11T11:26:20.891Z,21.63
2019-05-11T11:28:47.835Z,21.85
2019-05-11T11:31:14.106Z,21.73
2019-05-11T11:33:40.214Z,21.54
2019-05-11T11:36:08.367Z,21.49
2019-05-11T11:38:34.229Z,21.78
2019-05-11T11:41:00.345Z,21.93
2019-05-11T11:43:28.588Z,21.93
2019-05-11T11:45:54.396Z,22.16
2019-05-11T11:48:22.303Z,22.14
2019-05-11T11:50:48.724Z,21.91
2019-05-11T11:53:18.822Z,21.85
2019-05-11T11:55:48.034Z,22.19
2019-05-11T11:58:15.277Z,22.45
2019-05-11T12:00:41.844Z,22.18
2019-05-11T12:03:08.186Z,22.32
2019-05-11T12:05:34.663Z,22.58
2019-05-11T12:10:21.792Z,23.09
2019-05-11T12:12:47.854Z,22.89
2019-05-11T12:15:17.615Z,22.94
2019-05-11T12:17:43.463Z,22.81
2019-05-11T12:20:09.663Z,22.98
2019-05-11T12:22:35.570Z,23.25
2019-05-11T12:25:01.581Z,22.96
2019-05-11T12:27:28.690Z,22.79
2019-05-11T12:29:54.987Z,22.98
2019-05-11T12:32:22.931Z,23.17
2019-05-11T12:34:48.964Z,23.32
2019-05-11T12:37:14.974Z,23.48
2019-05-11T12:39:40.983Z,23.56
2019-05-11T12:42:08.605Z,23.73
2019-05-11T12:44:34.753Z,23.87
2019-05-11T12:47:00.772Z,23.91
2019-05-11T12:49:28.695Z,24.08
2019-05-11T12:51:54.685Z,23.98
2019-05-11T12:54:20.646Z,23.86
2019-05-11T12:56:48.854Z,23.69
2019-05-11T12:59:14.667Z,23.63
2019-05-11T13:01:41.052Z,23.84
2019-05-11T13:04:08.874Z,23.80
2019-05-11T13:06:35.110Z,23.83
2019-05-11T13:09:01.228Z,24.06
2019-05-11T13:11:28.611Z,24.23
2019-05-11T13:13:54.774Z,24.32
2019-05-11T13:16:22.301Z,24.32
2019-05-11T13:18:48.735Z,24.48
2019-05-11T13:21:15.060Z,24.56
2019-05-11T13:23:40.978Z,24.33
2019-05-11T13:26:08.746Z,24.04
2019-05-11T13:28:34.907Z,24.13
2019-05-11T13:31:00.930Z,24.04
2019-05-11T13:33:28.001Z,23.72
2019-05-11T13:35:54.179Z,23.75
2019-05-11T13:38:20.182Z,23.23
2019-05-11T13:40:48.743Z,22.50
2019-05-11T13:43:14.937Z,22.50
2019-05-11T13:45:41.127Z,22.21
2019-05-11T13:48:08.476Z,22.34
2019-05-11T13:50:34.635Z,22.12
2019-05-11T13:53:00.703Z,21.74
2019-05-11T13:55:28.413Z,22.10
2019-05-11T13:57:54.444Z,22.36
2019-05-11T14:00:20.688Z,22.55
2019-05-11T14:02:48.498Z,22.58
2019-05-11T14:05:14.936Z,22.61
2019-05-11T14:07:41.092Z,22.73
2019-05-11T14:10:08.072Z,22.90
2019-05-11T14:12:34.284Z,22.64
2019-05-11T14:15:00.399Z,22.33
2019-05-11T14:17:28.759Z,21.95
2019-05-11T14:19:54.626Z,21.74
2019-05-11T14:22:20.627Z,21.34
2019-05-11T14:24:48.255Z,21.12
2019-05-11T14:27:14.608Z,20.96
2019-05-11T14:29:41.504Z,20.81
